Mercini Lady — A8DL4 — position and weather

sailwx.info

Track history (hours):
 
Tides and Currents Weather Stations Pressure Air Temp Water Temp Dewpoint Dewpoint Depression Visibility Wind Speed Wind Dir Waves Ship Positions

Mercini Lady

Last reported at 2015-Apr-20 10:25 UTC. Time now 2015-Apr-27 04:00 UTC.
Position N 38°34' W 031°05'.

Length 182 m; draft 10.8 m.

Type: Tanker. MMSI: 636012102.

Date/timePositionNaut miles runAvg speedWind from/ knotsBaromVisibWave heightAir tempDewpointWater temp
2015-Apr-20 10:25N 38°34' W 031°05'1511.0
2015-Apr-20 09:04N 38°44' W 030°51'610.9
2015-Apr-20 08:33N 38°48' W 030°45'1610.7
2015-Apr-20 07:05N 38°59' W 030°31'610.4
2015-Apr-20 06:31N 39°03' W 030°25'1010.7
2015-Apr-20 05:34N 39°09' W 030°15'1110.5
2015-Apr-20 04:32N 39°17' W 030°05'1010.3
2015-Apr-20 03:33N 39°23' W 029°55'1110.6
2015-Apr-20 02:33N 39°29' W 029°44'1010.5
2015-Apr-20 01:33N 39°35' W 029°32'1110.6
2015-Apr-20 00:33N 39°42' W 029°21'1010.5
2015-Apr-19 23:33N 39°48' W 029°10'1111.2
2015-Apr-19 22:33N 39°54' W 028°58'1110.9
2015-Apr-19 21:33N 40°01' W 028°47'  
2015-Apr-15 11:13N 49°38' W 007°25'710.8
2015-Apr-15 10:34N 49°40' W 007°15'1110.9
2015-Apr-15 09:33N 49°42' W 006°58'1111.4
2015-Apr-15 08:34N 49°42' W 006°41'1211.5
2015-Apr-15 07:33N 49°42' W 006°23'2311.4
2015-Apr-15 05:32N 49°43' W 005°47'9911.1
2015-Apr-14 20:33N 49°58' W 003°15'1311.9
2015-Apr-14 19:30N 50°01' W 002°56'1111.2
2015-Apr-14 18:33N 50°03' W 002°40'1010.2
2015-Apr-14 17:33N 50°06' W 002°25'9 9.3
2015-Apr-14 16:34N 50°09' W 002°11'9 8.7
2015-Apr-14 15:34N 50°11' W 001°58'9 9.0
2015-Apr-14 14:33N 50°13' W 001°44'10 9.8
2015-Apr-14 13:32N 50°16' W 001°29'1111.0
2015-Apr-14 12:34N 50°19' W 001°13'1512.4
2015-Apr-14 11:19N 50°23' W 000°50'1012.8
2015-Apr-14 10:34N 50°25' W 000°35'1312.5
2015-Apr-14 09:33N 50°29' W 000°16'1212.0
2015-Apr-14 08:34N 50°32' E 000°02'1111.4
2015-Apr-14 07:34N 50°34' E 000°20'1110.6
2015-Apr-14 06:34N 50°38' E 000°35'1010.3
2015-Apr-14 05:34N 50°44' E 000°48'1010.2
2015-Apr-14 04:34N 50°51' E 001°01'1110.8
2015-Apr-14 03:34N 50°57' E 001°14'1211.9
2015-Apr-14 02:34N 51°05' E 001°29'1212.3
2015-Apr-14 01:33N 51°13' E 001°44'1111.4
2015-Apr-14 00:33N 51°23' E 001°53'1110.7
2015-Apr-13 23:33N 51°32' E 002°03'1010.4
2015-Apr-13 22:34N 51°39' E 002°14'10 9.8
2015-Apr-13 21:33N 51°47' E 002°25'10 9.6
2015-Apr-13 20:28N 51°55' E 002°35'9 9.6
2015-Apr-13 19:32N 52°04' E 002°39'1410.6
2015-Apr-13 18:16N 52°17' E 002°39'811.4
2015-Apr-13 17:33N 52°25' E 002°39'1211.9
2015-Apr-13 16:33N 52°37' E 002°39'1312.1
2015-Apr-13 15:28N 52°50' E 002°39'1112.1
2015-Apr-13 14:33N 53°01' E 002°39'79 7.9
2015-Apr-13 04:29N 53°52' E 000°57'910.1
2015-Apr-13 03:33N 53°52' E 000°41'1110.5
2015-Apr-13 02:33N 53°44' E 000°29'10 9.8
2015-Apr-13 01:33N 53°36' E 000°20'9 9.1
2015-Apr-13 00:33N 53°35' E 000°05'9 8.6
2015-Apr-12 23:33N 53°38' W 000°09'0 0.1
2015-Apr-12 22:33N 53°38' W 000°09'  
Track history (hours):
 
Tides and Currents Weather Stations Pressure Air Temp Water Temp Dewpoint Dewpoint Depression Visibility Wind Speed Wind Dir Waves Ship Positions

Mercini Lady

Last reported at 2015-Apr-20 10:25 UTC. Time now 2015-Apr-27 04:00 UTC.
Position N 38°34' W 031°05'.

Length 182 m; draft 10.8 m.

Type: Tanker. MMSI: 636012102.

Date/timePositionNaut miles runAvg speedWind from/ knotsBaromVisibWave heightAir tempDewpointWater temp
2015-Apr-20 10:25N 38°34' W 031°05'1511.0
2015-Apr-20 09:04N 38°44' W 030°51'610.9
2015-Apr-20 08:33N 38°48' W 030°45'1610.7
2015-Apr-20 07:05N 38°59' W 030°31'610.4
2015-Apr-20 06:31N 39°03' W 030°25'1010.7
2015-Apr-20 05:34N 39°09' W 030°15'1110.5
2015-Apr-20 04:32N 39°17' W 030°05'1010.3
2015-Apr-20 03:33N 39°23' W 029°55'1110.6
2015-Apr-20 02:33N 39°29' W 029°44'1010.5
2015-Apr-20 01:33N 39°35' W 029°32'1110.6
2015-Apr-20 00:33N 39°42' W 029°21'1010.5
2015-Apr-19 23:33N 39°48' W 029°10'1111.2
2015-Apr-19 22:33N 39°54' W 028°58'1110.9
2015-Apr-19 21:33N 40°01' W 028°47'  
2015-Apr-15 11:13N 49°38' W 007°25'710.8
2015-Apr-15 10:34N 49°40' W 007°15'1110.9
2015-Apr-15 09:33N 49°42' W 006°58'1111.4
2015-Apr-15 08:34N 49°42' W 006°41'1211.5
2015-Apr-15 07:33N 49°42' W 006°23'2311.4
2015-Apr-15 05:32N 49°43' W 005°47'9911.1
2015-Apr-14 20:33N 49°58' W 003°15'1311.9
2015-Apr-14 19:30N 50°01' W 002°56'1111.2
2015-Apr-14 18:33N 50°03' W 002°40'1010.2
2015-Apr-14 17:33N 50°06' W 002°25'9 9.3
2015-Apr-14 16:34N 50°09' W 002°11'9 8.7
2015-Apr-14 15:34N 50°11' W 001°58'9 9.0
2015-Apr-14 14:33N 50°13' W 001°44'10 9.8
2015-Apr-14 13:32N 50°16' W 001°29'1111.0
2015-Apr-14 12:34N 50°19' W 001°13'1512.4
2015-Apr-14 11:19N 50°23' W 000°50'1012.8
2015-Apr-14 10:34N 50°25' W 000°35'1312.5
2015-Apr-14 09:33N 50°29' W 000°16'1212.0
2015-Apr-14 08:34N 50°32' E 000°02'1111.4
2015-Apr-14 07:34N 50°34' E 000°20'1110.6
2015-Apr-14 06:34N 50°38' E 000°35'1010.3
2015-Apr-14 05:34N 50°44' E 000°48'1010.2
2015-Apr-14 04:34N 50°51' E 001°01'1110.8
2015-Apr-14 03:34N 50°57' E 001°14'1211.9
2015-Apr-14 02:34N 51°05' E 001°29'1212.3
2015-Apr-14 01:33N 51°13' E 001°44'1111.4
2015-Apr-14 00:33N 51°23' E 001°53'1110.7
2015-Apr-13 23:33N 51°32' E 002°03'1010.4
2015-Apr-13 22:34N 51°39' E 002°14'10 9.8
2015-Apr-13 21:33N 51°47' E 002°25'10 9.6
2015-Apr-13 20:28N 51°55' E 002°35'9 9.6
2015-Apr-13 19:32N 52°04' E 002°39'1410.6
2015-Apr-13 18:16N 52°17' E 002°39'811.4
2015-Apr-13 17:33N 52°25' E 002°39'1211.9
2015-Apr-13 16:33N 52°37' E 002°39'1312.1
2015-Apr-13 15:28N 52°50' E 002°39'1112.1
2015-Apr-13 14:33N 53°01' E 002°39'79 7.9
2015-Apr-13 04:29N 53°52' E 000°57'910.1
2015-Apr-13 03:33N 53°52' E 000°41'1110.5
2015-Apr-13 02:33N 53°44' E 000°29'10 9.8
2015-Apr-13 01:33N 53°36' E 000°20'9 9.1
2015-Apr-13 00:33N 53°35' E 000°05'9 8.6
2015-Apr-12 23:33N 53°38' W 000°09'0 0.1
2015-Apr-12 22:33N 53°38' W 000°09'  

Dump ship's entire track history